Time;durP1;ratioP1;P1;durP2;ratioP2;P2;SDS_P1;SDS_P2;PMS_P1;PMS_P2;Temp;Humidity;BMP_temperature;BMP_pressure;BME280_temperature;BME280_humidity;BME280_pressure;Samples;Min_cycle;Max_cycle;Signal;HPM_P1;HPM_P2
2023/03/29 00:02:19;;;;;;;;;;;;;;;;;;5051418;28;19961;-58
2023/03/29 00:04:45;;;;;;;;;;;;;;;;;;5052553;28;19909;-59
2023/03/29 00:07:12;;;;;;;;;;;;;;;;;;5075778;22;20314;-69
2023/03/29 00:09:38;;;;;;;;;;;;;;;;;;5058870;28;19999;-67
2023/03/29 00:12:04;;;;;;;;;;;;;;;;;;5053488;28;19990;-66
2023/03/29 00:14:30;;;;;;;;;;;;;;;;;;5052236;28;20375;-68
2023/03/29 00:16:56;;;;;;;;;;;;;;;;;;5053886;28;19944;-69
2023/03/29 00:19:22;;;;;;;;;;;;;;;;;;5036251;28;19901;-69
2023/03/29 00:21:48;;;;;;;;;;;;;;;;;;5053632;28;19975;-69
2023/03/29 00:24:14;;;;;;;;;;;;;;;;;;5052989;28;19909;-67
2023/03/29 00:26:40;;;;;;;;;;;;;;;;;;5053617;28;20044;-69
2023/03/29 00:29:06;;;;;;;;;;;;;;;;;;5053617;28;20372;-68
2023/03/29 00:31:32;;;;;;;;;;;;;;;;;;5052870;28;20396;-68
2023/03/29 00:33:58;;;;;;;;;;;;;;;;;;5052916;28;19931;-67
2023/03/29 00:36:23;;;;;;;;;;;;;;;;;;5053311;28;19905;-68
2023/03/29 00:38:49;;;;;;;;;;;;;;;;;;5053071;28;19905;-67
2023/03/29 00:41:15;;;;;;;;;;;;;;;;;;5053467;28;20419;-68
2023/03/29 00:43:41;;;;;;;;;;;;;;;;;;5052532;28;19912;-68
2023/03/29 00:46:07;;;;;;;;;;;;;;;;;;5035364;28;19912;-70
2023/03/29 00:48:33;;;;;;;;;;;;;;;;;;5053116;28;19904;-68
2023/03/29 00:50:59;;;;;;;;;;;;;;;;;;5053191;28;19904;-68
2023/03/29 00:53:25;;;;;;;;;;;;;;;;;;5034339;28;20349;-68
2023/03/29 00:55:53;;;;;;;;;;;;;;;;;;5053127;28;19912;-68
2023/03/29 00:58:19;;;;;;;;;;;;;;;;;;5053259;28;20004;-67
2023/03/29 01:00:46;;;;;;;;;;;;;;;;;;5052931;28;20450;-68
2023/03/29 01:03:12;;;;;;;;;;;;;;;;;;5052128;28;19909;-69
2023/03/29 01:05:39;;;;;;;;;;;;;;;;;;5053248;28;19907;-69
2023/03/29 01:08:05;;;;;;;;;;;;;;;;;;5051424;28;19913;-68
2023/03/29 01:10:31;;;;;;;;;;;;;;;;;;5052673;28;19908;-66
2023/03/29 01:12:57;;;;;;;;;;;;;;;;;;5034685;28;19955;-67
2023/03/29 01:15:23;;;;;;;;;;;;;;;;;;5050676;28;19905;-69
2023/03/29 01:17:52;;;;;;;;;;;;;;;;;;5052757;28;19905;-68
2023/03/29 01:20:19;;;;;;;;;;;;;;;;;;5052719;28;19922;-69
2023/03/29 01:22:44;;;;;;;;;;;;;;;;;;5052595;28;19905;-69
2023/03/29 01:25:11;;;;;;;;;;;;;;;;;;5050486;28;19950;-67
2023/03/29 01:27:37;;;;;;;;;;;;;;;;;;5052366;28;19905;-69
2023/03/29 01:30:03;;;;;;;;;;;;;;;;;;5052235;28;19912;-68
2023/03/29 01:32:29;;;;;;;;;;;;;;;;;;5052547;28;19904;-68
2023/03/29 01:34:56;;;;;;;;;;;;;;;;;;5051698;28;19905;-66
2023/03/29 01:37:23;;;;;;;;;;;;;;;;;;5051014;28;20090;-67
2023/03/29 01:39:49;;;;;;;;;;;;;;;;;;5052430;28;19995;-68
2023/03/29 01:42:15;;;;;;;;;;;;;;;;;;5051271;28;20407;-68
2023/03/29 01:44:41;;;;;;;;;;;;;;;;;;5051646;28;19915;-67
2023/03/29 01:47:07;;;;;;;;;;;;;;;;;;5052367;28;19904;-68
2023/03/29 01:49:33;;;;;;;;;;;;;;;;;;5052337;28;20318;-67
2023/03/29 01:51:59;;;;;;;;;;;;;;;;;;5052349;28;19999;-66
2023/03/29 01:54:25;;;;;;;;;;;;;;;;;;5051506;28;19905;-68
2023/03/29 01:56:51;;;;;;;;;;;;;;;;;;5050624;28;19912;-67
2023/03/29 01:59:17;;;;;;;;;;;;;;;;;;5052121;28;19958;-68
2023/03/29 02:01:47;;;;;;;;;;;;;;;;;;5051796;28;19920;-68
2023/03/29 02:04:13;;;;;;;;;;;;;;;;;;5051188;28;19916;-67
2023/03/29 02:06:39;;;;;;;;;;;;;;;;;;5051766;28;19904;-67
2023/03/29 02:09:05;;;;;;;;;;;;;;;;;;5047303;28;19913;-67
2023/03/29 02:11:31;;;;;;;;;;;;;;;;;;5051524;28;20376;-69
2023/03/29 02:13:57;;;;;;;;;;;;;;;;;;5050842;28;19947;-69
2023/03/29 02:16:23;;;;;;;;;;;;;;;;;;5033706;28;19900;-68
2023/03/29 02:18:49;;;;;;;;;;;;;;;;;;5051387;28;19913;-67
2023/03/29 02:21:15;;;;;;;;;;;;;;;;;;5033525;28;20442;-70
2023/03/29 02:23:44;;;;;;;;;;;;;;;;;;5050688;28;19908;-68
2023/03/29 02:26:09;;;;;;;;;;;;;;;;;;5051359;28;19950;-68
2023/03/29 02:28:35;;;;;;;;;;;;;;;;;;5051125;28;20003;-68
2023/03/29 02:31:04;;;;;;;;;;;;;;;;;;5051177;28;19912;-69
2023/03/29 02:33:31;;;;;;;;;;;;;;;;;;5050432;28;20369;-68
2023/03/29 02:35:57;;;;;;;;;;;;;;;;;;5031891;28;19995;-68
2023/03/29 02:38:24;;;;;;;;;;;;;;;;;;5047825;28;20368;-67
2023/03/29 02:40:51;;;;;;;;;;;;;;;;;;5049619;28;19905;-66
2023/03/29 02:43:17;;;;;;;;;;;;;;;;;;5049882;28;19908;-68
2023/03/29 02:45:43;;;;;;;;;;;;;;;;;;5049469;28;19971;-69
2023/03/29 02:48:09;;;;;;;;;;;;;;;;;;5050993;28;20380;-68
2023/03/29 02:50:35;;;;;;;;;;;;;;;;;;5050748;28;20490;-69
2023/03/29 02:53:01;;;;;;;;;;;;;;;;;;5032500;28;19908;-71
2023/03/29 02:55:30;;;;;;;;;;;;;;;;;;5050740;28;20391;-68
2023/03/29 02:57:56;;;;;;;;;;;;;;;;;;5032943;28;19905;-68
2023/03/29 03:00:22;;;;;;;;;;;;;;;;;;5032653;28;19996;-68
2023/03/29 03:02:49;;;;;;;;;;;;;;;;;;5050458;28;19904;-68
2023/03/29 03:05:16;;;;;;;;;;;;;;;;;;5031792;28;19905;-68
2023/03/29 03:07:42;;;;;;;;;;;;;;;;;;5050271;28;19980;-66
2023/03/29 03:10:08;;;;;;;;;;;;;;;;;;5050307;28;19909;-68
2023/03/29 03:12:36;;;;;;;;;;;;;;;;;;5050313;28;19996;-67
2023/03/29 03:15:02;;;;;;;;;;;;;;;;;;5049711;28;19904;-70
2023/03/29 03:17:27;;;;;;;;;;;;;;;;;;5050483;28;19987;-67
2023/03/29 03:19:53;;;;;;;;;;;;;;;;;;5050518;28;19912;-69
2023/03/29 03:22:19;;;;;;;;;;;;;;;;;;5050384;28;20266;-70
2023/03/29 03:24:45;;;;;;;;;;;;;;;;;;4697112;28;10000604;-67
2023/03/29 03:27:11;;;;;;;;;;;;;;;;;;5021925;28;20070;-66
2023/03/29 03:29:37;;;;;;;;;;;;;;;;;;5046782;28;19954;-68
2023/03/29 03:32:03;;;;;;;;;;;;;;;;;;5048878;28;19905;-64
2023/03/29 03:34:29;;;;;;;;;;;;;;;;;;5030661;28;20299;-66
2023/03/29 03:36:55;;;;;;;;;;;;;;;;;;5048376;28;19904;-67
2023/03/29 03:39:21;;;;;;;;;;;;;;;;;;5047967;28;19958;-68
2023/03/29 03:41:47;;;;;;;;;;;;;;;;;;5048613;28;19972;-68
2023/03/29 03:44:13;;;;;;;;;;;;;;;;;;5030591;28;20043;-67
2023/03/29 03:46:39;;;;;;;;;;;;;;;;;;5048265;28;19909;-68
2023/03/29 03:49:05;;;;;;;;;;;;;;;;;;5047719;28;19978;-65
2023/03/29 03:51:31;;;;;;;;;;;;;;;;;;5031394;28;19947;-66
2023/03/29 03:53:56;;;;;;;;;;;;;;;;;;5030727;28;19911;-66
2023/03/29 03:56:22;;;;;;;;;;;;;;;;;;5047845;28;19905;-66
2023/03/29 03:58:48;;;;;;;;;;;;;;;;;;5032824;28;19912;-65
2023/03/29 04:01:15;;;;;;;;;;;;;;;;;;5032327;28;19959;-67
2023/03/29 04:03:41;;;;;;;;;;;;;;;;;;5043969;28;19909;-68
2023/03/29 04:06:07;;;;;;;;;;;;;;;;;;5051513;28;20242;-66
2023/03/29 04:08:33;;;;;;;;;;;;;;;;;;5053343;28;19912;-69
2023/03/29 04:10:59;;;;;;;;;;;;;;;;;;5053513;28;19908;-67
2023/03/29 04:13:26;;;;;;;;;;;;;;;;;;5052792;28;20376;-70
2023/03/29 04:15:55;;;;;;;;;;;;;;;;;;5053663;28;19909;-68
2023/03/29 04:18:21;;;;;;;;;;;;;;;;;;5053529;28;19904;-67
2023/03/29 04:20:47;;;;;;;;;;;;;;;;;;5053869;28;19974;-67
2023/03/29 04:23:13;;;;;;;;;;;;;;;;;;5052788;28;19909;-66
2023/03/29 04:25:39;;;;;;;;;;;;;;;;;;5053313;28;19928;-68
2023/03/29 04:28:05;;;;;;;;;;;;;;;;;;5035354;28;19905;-65
2023/03/29 04:30:31;;;;;;;;;;;;;;;;;;5053409;28;19908;-67
2023/03/29 04:32:57;;;;;;;;;;;;;;;;;;5053375;28;19953;-65
2023/03/29 04:35:23;;;;;;;;;;;;;;;;;;5052687;28;20253;-67
2023/03/29 04:37:49;;;;;;;;;;;;;;;;;;5053445;28;20456;-68
2023/03/29 04:40:18;;;;;;;;;;;;;;;;;;5035604;28;19916;-68
2023/03/29 04:42:44;;;;;;;;;;;;;;;;;;5053735;28;20320;-67
2023/03/29 04:45:12;;;;;;;;;;;;;;;;;;5052396;28;19908;-67
2023/03/29 04:47:38;;;;;;;;;;;;;;;;;;5035111;28;19947;-66
2023/03/29 04:50:05;;;;;;;;;;;;;;;;;;5035310;28;19974;-66
2023/03/29 04:52:32;;;;;;;;;;;;;;;;;;5035164;28;19958;-66
2023/03/29 04:54:57;;;;;;;;;;;;;;;;;;5034448;28;19951;-66
2023/03/29 04:57:23;;;;;;;;;;;;;;;;;;5052555;28;20357;-64
2023/03/29 04:59:50;;;;;;;;;;;;;;;;;;5053147;28;19904;-67
2023/03/29 05:02:16;;;;;;;;;;;;;;;;;;5052865;28;19905;-66
2023/03/29 05:04:41;;;;;;;;;;;;;;;;;;5051605;28;19915;-66
2023/03/29 05:07:07;;;;;;;;;;;;;;;;;;5050215;28;19954;-65
2023/03/29 05:09:34;;;;;;;;;;;;;;;;;;5043403;28;19972;-66
2023/03/29 05:12:00;;;;;;;;;;;;;;;;;;5046105;28;19950;-67
2023/03/29 05:14:26;;;;;;;;;;;;;;;;;;5030353;28;20350;-65
2023/03/29 05:16:51;;;;;;;;;;;;;;;;;;5043121;28;19905;-65
2023/03/29 05:19:20;;;;;;;;;;;;;;;;;;5051966;28;19905;-65
2023/03/29 05:21:46;;;;;;;;;;;;;;;;;;5052160;28;20388;-66
2023/03/29 05:24:12;;;;;;;;;;;;;;;;;;5050051;28;19908;-67
2023/03/29 05:26:38;;;;;;;;;;;;;;;;;;5030659;28;19908;-65
2023/03/29 05:29:04;;;;;;;;;;;;;;;;;;5031915;28;19970;-65
2023/03/29 05:31:31;;;;;;;;;;;;;;;;;;5031871;28;19935;-62
2023/03/29 05:33:57;;;;;;;;;;;;;;;;;;5031124;28;19905;-62
2023/03/29 05:36:23;;;;;;;;;;;;;;;;;;5038142;28;19926;-62
2023/03/29 05:38:49;;;;;;;;;;;;;;;;;;5048519;28;19905;-62
2023/03/29 05:41:16;;;;;;;;;;;;;;;;;;5049828;28;20304;-61
2023/03/29 05:43:42;;;;;;;;;;;;;;;;;;5048367;28;20031;-60
2023/03/29 05:46:08;;;;;;;;;;;;;;;;;;5051167;28;20391;-58
2023/03/29 05:48:34;;;;;;;;;;;;;;;;;;5050886;28;20038;-58
2023/03/29 05:51:00;;;;;;;;;;;;;;;;;;5033258;28;19951;-59
2023/03/29 05:53:27;;;;;;;;;;;;;;;;;;5050787;28;20000;-64
2023/03/29 05:55:53;;;;;;;;;;;;;;;;;;5051467;28;19940;-65
2023/03/29 05:58:20;;;;;;;;;;;;;;;;;;5051231;28;19917;-64
2023/03/29 06:00:48;;;;;;;;;;;;;;;;;;5051085;28;19904;-65
2023/03/29 06:03:15;;;;;;;;;;;;;;;;;;5050415;28;20438;-66
2023/03/29 06:05:41;;;;;;;;;;;;;;;;;;5050742;28;19911;-59
2023/03/29 06:08:08;;;;;;;;;;;;;;;;;;5067262;22;20011;-60
2023/03/29 06:10:35;;;;;;;;;;;;;;;;;;5072180;28;20260;-58
2023/03/29 06:13:01;;;;;;;;;;;;;;;;;;5071316;28;19905;-62
2023/03/29 06:15:27;;;;;;;;;;;;;;;;;;5071848;28;19911;-57
2023/03/29 06:17:53;;;;;;;;;;;;;;;;;;5076648;28;19946;-61
2023/03/29 06:20:20;;;;;;;;;;;;;;;;;;5092123;28;19915;-62
2023/03/29 06:22:46;;;;;;;;;;;;;;;;;;5092347;28;19962;-61
2023/03/29 06:25:14;;;;;;;;;;;;;;;;;;5091571;28;19920;-60
2023/03/29 06:27:40;;;;;;;;;;;;;;;;;;5090786;28;20443;-60
2023/03/29 06:30:06;;;;;;;;;;;;;;;;;;5091928;28;19947;-60
2023/03/29 06:32:32;;;;;;;;;;;;;;;;;;5091400;28;19957;-59
2023/03/29 06:34:58;;;;;;;;;;;;;;;;;;5091485;28;19908;-61
2023/03/29 06:37:24;;;;;;;;;;;;;;;;;;5092032;28;19904;-59
2023/03/29 06:39:52;;;;;;;;;;;;;;;;;;5090738;28;19957;-59
2023/03/29 06:42:18;;;;;;;;;;;;;;;;;;5091260;28;19911;-61
2023/03/29 06:44:44;;;;;;;;;;;;;;;;;;5071163;28;19952;-62
2023/03/29 06:47:10;;;;;;;;;;;;;;;;;;5071301;28;19912;-60
2023/03/29 06:49:36;;;;;;;;;;;;;;;;;;5071597;28;19905;-62
2023/03/29 06:52:02;;;;;;;;;;;;;;;;;;5071695;28;20340;-62
2023/03/29 06:54:28;;;;;;;;;;;;;;;;;;5070493;28;19912;-62
2023/03/29 06:56:54;;;;;;;;;;;;;;;;;;5071621;28;19905;-60
2023/03/29 06:59:20;;;;;;;;;;;;;;;;;;5071624;28;19909;-62
2023/03/29 07:01:46;;;;;;;;;;;;;;;;;;5071698;28;19911;-61
2023/03/29 07:04:12;;;;;;;;;;;;;;;;;;5070918;28;20284;-58
2023/03/29 07:06:39;;;;;;;;;;;;;;;;;;5070596;28;19969;-61
2023/03/29 07:09:05;;;;;;;;;;;;;;;;;;5076793;28;19924;-61
2023/03/29 07:11:32;;;;;;;;;;;;;;;;;;5091762;28;19905;-61
2023/03/29 07:13:58;;;;;;;;;;;;;;;;;;5091177;28;20314;-58
2023/03/29 07:16:24;;;;;;;;;;;;;;;;;;5091800;28;19957;-61
2023/03/29 07:18:50;;;;;;;;;;;;;;;;;;5090511;28;19911;-62
2023/03/29 07:21:16;;;;;;;;;;;;;;;;;;5090306;28;19911;-61
2023/03/29 07:23:42;;;;;;;;;;;;;;;;;;5091088;28;20346;-62
2023/03/29 07:26:09;;;;;;;;;;;;;;;;;;5090507;28;19908;-62
2023/03/29 07:28:36;;;;;;;;;;;;;;;;;;5091785;28;19943;-62
2023/03/29 07:31:03;;;;;;;;;;;;;;;;;;5091673;28;20326;-62
2023/03/29 07:33:29;;;;;;;;;;;;;;;;;;5090666;28;20065;-59
2023/03/29 07:35:56;;;;;;;;;;;;;;;;;;5070586;28;20003;-60
2023/03/29 07:38:21;;;;;;;;;;;;;;;;;;5066583;28;20442;-63
2023/03/29 07:40:47;;;;;;;;;;;;;;;;;;5071901;28;19912;-60
2023/03/29 07:43:13;;;;;;;;;;;;;;;;;;5074718;28;19908;-60
2023/03/29 07:45:41;;;;;;;;;;;;;;;;;;5073888;28;20597;-61
2023/03/29 07:48:07;;;;;;;;;;;;;;;;;;5075050;28;20353;-62
2023/03/29 07:50:33;;;;;;;;;;;;;;;;;;5074053;28;19905;-62
2023/03/29 07:53:00;;;;;;;;;;;;;;;;;;5073551;28;19908;-62
2023/03/29 07:55:26;;;;;;;;;;;;;;;;;;5074685;28;19908;-62
2023/03/29 07:57:52;;;;;;;;;;;;;;;;;;5075184;28;19904;-61
2023/03/29 08:00:18;;;;;;;;;;;;;;;;;;5073746;28;20442;-60
2023/03/29 08:02:44;;;;;;;;;;;;;;;;;;5074792;28;19912;-62
2023/03/29 08:05:11;;;;;;;;;;;;;;;;;;5072641;28;19934;-59
2023/03/29 08:07:37;;;;;;;;;;;;;;;;;;5074731;28;19908;-62
2023/03/29 08:10:03;;;;;;;;;;;;;;;;;;5089432;28;19908;-60
2023/03/29 08:12:29;;;;;;;;;;;;;;;;;;5095161;28;20290;-61
2023/03/29 08:14:56;;;;;;;;;;;;;;;;;;5094104;28;19911;-62
2023/03/29 08:17:21;;;;;;;;;;;;;;;;;;5094874;28;19942;-62
2023/03/29 08:19:47;;;;;;;;;;;;;;;;;;5093618;28;19957;-61
2023/03/29 08:22:13;;;;;;;;;;;;;;;;;;5094052;28;20283;-62
2023/03/29 08:24:40;;;;;;;;;;;;;;;;;;5094028;28;20006;-62
2023/03/29 08:27:06;;;;;;;;;;;;;;;;;;5094904;28;19946;-62
2023/03/29 08:29:32;;;;;;;;;;;;;;;;;;5094646;28;19955;-64
2023/03/29 08:31:58;;;;;;;;;;;;;;;;;;5094677;28;19904;-62
2023/03/29 08:34:24;;;;;;;;;;;;;;;;;;5093977;28;19947;-61
2023/03/29 08:36:51;;;;;;;;;;;;;;;;;;5094876;28;19957;-62
2023/03/29 08:39:17;;;;;;;;;;;;;;;;;;5093092;28;20331;-60
2023/03/29 08:41:43;;;;;;;;;;;;;;;;;;5094657;28;19957;-62
2023/03/29 08:44:10;;;;;;;;;;;;;;;;;;5092377;28;20378;-61
2023/03/29 08:46:36;;;;;;;;;;;;;;;;;;5094733;28;19960;-57
2023/03/29 08:49:02;;;;;;;;;;;;;;;;;;5094166;28;20376;-61
2023/03/29 08:51:28;;;;;;;;;;;;;;;;;;5093789;28;19904;-60
2023/03/29 08:53:53;;;;;;;;;;;;;;;;;;5067245;28;20376;-62
2023/03/29 08:56:20;;;;;;;;;;;;;;;;;;5071679;28;19908;-58
2023/03/29 08:58:46;;;;;;;;;;;;;;;;;;5072428;28;19904;-62
2023/03/29 09:01:12;;;;;;;;;;;;;;;;;;5073631;28;19911;-61
2023/03/29 09:03:38;;;;;;;;;;;;;;;;;;5072829;28;20253;-61
2023/03/29 09:06:04;;;;;;;;;;;;;;;;;;5073450;28;19911;-63
2023/03/29 09:08:30;;;;;;;;;;;;;;;;;;5074772;28;20003;-62
2023/03/29 09:10:56;;;;;;;;;;;;;;;;;;5092727;28;19939;-62
2023/03/29 09:13:22;;;;;;;;;;;;;;;;;;5091688;28;19919;-62
2023/03/29 09:15:48;;;;;;;;;;;;;;;;;;5092485;28;19961;-62
2023/03/29 09:18:14;;;;;;;;;;;;;;;;;;5092215;28;19916;-61
2023/03/29 09:20:40;;;;;;;;;;;;;;;;;;5093560;28;19907;-64
2023/03/29 09:23:06;;;;;;;;;;;;;;;;;;5091578;28;19999;-63
2023/03/29 09:25:32;;;;;;;;;;;;;;;;;;5093738;28;20487;-63
2023/03/29 09:27:58;;;;;;;;;;;;;;;;;;5093561;28;20364;-61
2023/03/29 09:30:27;;;;;;;;;;;;;;;;;;5091843;28;19974;-61
2023/03/29 09:32:53;;;;;;;;;;;;;;;;;;5093218;28;19907;-64
2023/03/29 09:35:19;;;;;;;;;;;;;;;;;;5092440;28;20430;-60
2023/03/29 09:37:45;;;;;;;;;;;;;;;;;;5093323;28;20069;-64
2023/03/29 09:40:11;;;;;;;;;;;;;;;;;;5093507;28;19904;-64
2023/03/29 09:42:36;;;;;;;;;;;;;;;;;;5093291;28;19914;-61
2023/03/29 09:45:07;;;;;;;;;;;;;;;;;;5090943;28;20007;-64
2023/03/29 09:47:33;;;;;;;;;;;;;;;;;;5093327;28;19904;-61
2023/03/29 09:49:59;;;;;;;;;;;;;;;;;;5093393;28;19910;-62
2023/03/29 09:52:25;;;;;;;;;;;;;;;;;;5093211;28;20411;-63
2023/03/29 09:54:51;;;;;;;;;;;;;;;;;;5090975;28;19969;-63
2023/03/29 09:57:16;;;;;;;;;;;;;;;;;;5092778;28;19908;-63
2023/03/29 09:59:42;;;;;;;;;;;;;;;;;;5093420;28;19904;-61
2023/03/29 10:02:09;;;;;;;;;;;;;;;;;;5092898;28;19949;-63
2023/03/29 10:04:35;;;;;;;;;;;;;;;;;;5091018;28;19961;-63
2023/03/29 10:07:01;;;;;;;;;;;;;;;;;;5092721;28;19908;-61
2023/03/29 10:09:28;;;;;;;;;;;;;;;;;;5083046;28;20309;-63
2023/03/29 10:11:55;;;;;;;;;;;;;;;;;;5071124;28;19911;-60
2023/03/29 10:14:21;;;;;;;;;;;;;;;;;;5070103;28;19908;-62
2023/03/29 10:16:47;;;;;;;;;;;;;;;;;;5072481;28;19927;-63
2023/03/29 10:19:14;;;;;;;;;;;;;;;;;;5071111;28;19912;-63
2023/03/29 10:27:13;;;;;;;;;;;;;;;;;;5071242;28;19915;-63
2023/03/29 10:29:39;;;;;;;;;;;;;;;;;;5071958;28;19950;-60
2023/03/29 10:32:05;;;;;;;;;;;;;;;;;;5070492;28;19909;-62
2023/03/29 10:34:31;;;;;;;;;;;;;;;;;;5070858;28;19915;-63
2023/03/29 10:36:57;;;;;;;;;;;;;;;;;;5070215;28;19908;-61
2023/03/29 10:39:23;;;;;;;;;;;;;;;;;;5070301;28;20360;-62
2023/03/29 10:41:49;;;;;;;;;;;;;;;;;;5072224;28;19910;-62
2023/03/29 10:44:15;;;;;;;;;;;;;;;;;;5070640;28;19908;-59
2023/03/29 10:46:41;;;;;;;;;;;;;;;;;;5071715;28;19911;-61
2023/03/29 10:49:09;;;;;;;;;;;;;;;;;;5071275;28;19943;-62
2023/03/29 10:51:35;;;;;;;;;;;;;;;;;;5070358;28;19911;-62
2023/03/29 10:54:01;;;;;;;;;;;;;;;;;;5070842;28;19908;-61
2023/03/29 10:56:27;;;;;;;;;;;;;;;;;;5070266;28;20280;-60
2023/03/29 10:58:53;;;;;;;;;;;;;;;;;;5070031;28;19950;-60
2023/03/29 11:01:19;;;;;;;;;;;;;;;;;;5072047;28;20280;-59
2023/03/29 11:03:45;;;;;;;;;;;;;;;;;;5070534;28;19909;-60
2023/03/29 11:06:13;;;;;;;;;;;;;;;;;;5071631;28;20405;-59
2023/03/29 11:08:38;;;;;;;;;;;;;;;;;;5072060;28;19928;-61
2023/03/29 11:11:04;;;;;;;;;;;;;;;;;;5071247;28;19920;-58
2023/03/29 11:13:30;;;;;;;;;;;;;;;;;;5068917;28;19905;-63
2023/03/29 11:15:56;;;;;;;;;;;;;;;;;;5071753;28;19991;-63
2023/03/29 11:18:22;;;;;;;;;;;;;;;;;;5071090;28;19943;-60
2023/03/29 11:20:48;;;;;;;;;;;;;;;;;;5069736;28;19904;-59
2023/03/29 11:23:15;;;;;;;;;;;;;;;;;;5069624;28;19949;-61
2023/03/29 11:25:41;;;;;;;;;;;;;;;;;;5071190;28;19934;-63
2023/03/29 11:28:07;;;;;;;;;;;;;;;;;;5071176;28;20007;-60
2023/03/29 11:30:34;;;;;;;;;;;;;;;;;;5071321;28;19944;-63
2023/03/29 11:33:00;;;;;;;;;;;;;;;;;;5071540;28;19950;-62
2023/03/29 11:35:26;;;;;;;;;;;;;;;;;;4713163;28;10000500;-62
2023/03/29 11:37:52;;;;;;;;;;;;;;;;;;5068330;28;19999;-63
2023/03/29 11:40:18;;;;;;;;;;;;;;;;;;5065440;28;19904;-63
2023/03/29 11:42:44;;;;;;;;;;;;;;;;;;5065584;28;20292;-61
2023/03/29 11:45:10;;;;;;;;;;;;;;;;;;5064160;28;19981;-62
2023/03/29 11:47:36;;;;;;;;;;;;;;;;;;5065713;28;20321;-62
2023/03/29 11:50:02;;;;;;;;;;;;;;;;;;5066643;28;19957;-62
2023/03/29 11:52:28;;;;;;;;;;;;;;;;;;5064853;28;19915;-62
2023/03/29 11:54:54;;;;;;;;;;;;;;;;;;5065795;28;20017;-63
2023/03/29 11:57:20;;;;;;;;;;;;;;;;;;5068084;28;19908;-63
2023/03/29 11:59:46;;;;;;;;;;;;;;;;;;5067775;28;19908;-63
2023/03/29 12:02:12;;;;;;;;;;;;;;;;;;5066292;28;19970;-61
2023/03/29 12:04:38;;;;;;;;;;;;;;;;;;5061210;28;19916;-60
2023/03/29 12:07:04;;;;;;;;;;;;;;;;;;5067631;28;19913;-61
2023/03/29 12:09:30;;;;;;;;;;;;;;;;;;5067284;28;19939;-58
2023/03/29 12:11:56;;;;;;;;;;;;;;;;;;5063832;28;19958;-61
2023/03/29 12:14:22;;;;;;;;;;;;;;;;;;5077278;28;19912;-62
2023/03/29 12:16:48;;;;;;;;;;;;;;;;;;5068444;28;19904;-62
2023/03/29 12:19:15;;;;;;;;;;;;;;;;;;5068264;28;19909;-62
2023/03/29 12:21:41;;;;;;;;;;;;;;;;;;5067304;28;19908;-62
2023/03/29 12:24:06;;;;;;;;;;;;;;;;;;5065971;28;19919;-61
2023/03/29 12:26:33;;;;;;;;;;;;;;;;;;5067642;28;19977;-63
2023/03/29 12:28:59;;;;;;;;;;;;;;;;;;5071761;28;19961;-62
2023/03/29 12:31:25;;;;;;;;;;;;;;;;;;5072042;28;19939;-62
2023/03/29 12:33:51;;;;;;;;;;;;;;;;;;5069482;28;19971;-61
2023/03/29 12:36:17;;;;;;;;;;;;;;;;;;5069760;28;19915;-62
2023/03/29 12:38:43;;;;;;;;;;;;;;;;;;5070962;28;19905;-63
2023/03/29 12:41:09;;;;;;;;;;;;;;;;;;5070813;28;20207;-63
2023/03/29 12:43:35;;;;;;;;;;;;;;;;;;5070502;28;19978;-63
2023/03/29 12:46:01;;;;;;;;;;;;;;;;;;5067007;28;20357;-61
2023/03/29 12:48:27;;;;;;;;;;;;;;;;;;5069259;28;20022;-62
2023/03/29 12:50:53;;;;;;;;;;;;;;;;;;5070731;28;19909;-63
2023/03/29 12:53:19;;;;;;;;;;;;;;;;;;5068770;28;19934;-63
2023/03/29 12:55:45;;;;;;;;;;;;;;;;;;5069323;28;19957;-63
2023/03/29 12:58:11;;;;;;;;;;;;;;;;;;5068241;28;19912;-61
2023/03/29 13:00:37;;;;;;;;;;;;;;;;;;5069858;28;20270;-60
2023/03/29 13:03:03;;;;;;;;;;;;;;;;;;5069390;28;19908;-62
2023/03/29 13:05:29;;;;;;;;;;;;;;;;;;5070374;28;20387;-62
2023/03/29 13:07:55;;;;;;;;;;;;;;;;;;5070056;28;19908;-60
2023/03/29 13:10:21;;;;;;;;;;;;;;;;;;5070006;28;19989;-63
2023/03/29 13:12:49;;;;;;;;;;;;;;;;;;5070469;28;20323;-64
2023/03/29 13:15:15;;;;;;;;;;;;;;;;;;5069413;28;19900;-63
2023/03/29 13:17:41;;;;;;;;;;;;;;;;;;5069001;28;19914;-62
2023/03/29 13:20:08;;;;;;;;;;;;;;;;;;5070342;28;19904;-63
2023/03/29 13:22:34;;;;;;;;;;;;;;;;;;5069686;28;19974;-63
2023/03/29 13:25:01;;;;;;;;;;;;;;;;;;5068005;28;20323;-62
2023/03/29 13:27:27;;;;;;;;;;;;;;;;;;5068813;28;19916;-63
2023/03/29 13:29:53;;;;;;;;;;;;;;;;;;5069461;28;19912;-62
2023/03/29 13:32:18;;;;;;;;;;;;;;;;;;5070084;28;19905;-63
2023/03/29 13:34:45;;;;;;;;;;;;;;;;;;5068306;28;19919;-63
2023/03/29 13:37:11;;;;;;;;;;;;;;;;;;5068314;28;20623;-63
2023/03/29 13:39:38;;;;;;;;;;;;;;;;;;5068737;28;19951;-63
2023/03/29 13:42:04;;;;;;;;;;;;;;;;;;5069391;28;20344;-59
2023/03/29 13:44:30;;;;;;;;;;;;;;;;;;5068998;28;20292;-61
2023/03/29 13:46:56;;;;;;;;;;;;;;;;;;5067695;28;20341;-61
2023/03/29 13:49:22;;;;;;;;;;;;;;;;;;5069286;28;19920;-61
2023/03/29 13:51:48;;;;;;;;;;;;;;;;;;5069132;28;19912;-62
2023/03/29 13:54:14;;;;;;;;;;;;;;;;;;5068111;28;20368;-61
2023/03/29 13:56:42;;;;;;;;;;;;;;;;;;5069446;28;20371;-61
2023/03/29 13:59:07;;;;;;;;;;;;;;;;;;5067349;28;20023;-59
2023/03/29 14:01:33;;;;;;;;;;;;;;;;;;5069089;28;19991;-62
2023/03/29 14:03:59;;;;;;;;;;;;;;;;;;5068218;28;20422;-65
2023/03/29 14:06:25;;;;;;;;;;;;;;;;;;5068866;28;19908;-62
2023/03/29 14:08:51;;;;;;;;;;;;;;;;;;5068779;28;19966;-61
2023/03/29 14:11:17;;;;;;;;;;;;;;;;;;5068772;28;19999;-62
2023/03/29 14:13:43;;;;;;;;;;;;;;;;;;5068216;28;19904;-60
2023/03/29 14:16:09;;;;;;;;;;;;;;;;;;5067769;28;20707;-60
2023/03/29 14:18:35;;;;;;;;;;;;;;;;;;5069322;28;19944;-62
2023/03/29 14:21:00;;;;;;;;;;;;;;;;;;5069652;28;19915;-59
2023/03/29 14:23:26;;;;;;;;;;;;;;;;;;5069348;28;19955;-60
2023/03/29 14:25:52;;;;;;;;;;;;;;;;;;5071951;28;19911;-64
2023/03/29 14:28:18;;;;;;;;;;;;;;;;;;5071279;28;20364;-63
2023/03/29 14:30:45;;;;;;;;;;;;;;;;;;4717953;28;10000074;-64
2023/03/29 14:33:11;;;;;;;;;;;;;;;;;;5065718;28;20330;-61
2023/03/29 14:35:39;;;;;;;;;;;;;;;;;;5069624;28;19973;-62
2023/03/29 14:38:04;;;;;;;;;;;;;;;;;;5068467;28;19923;-63
2023/03/29 14:40:31;;;;;;;;;;;;;;;;;;5068496;28;20289;-61
2023/03/29 14:42:57;;;;;;;;;;;;;;;;;;5066757;28;19908;-61
2023/03/29 14:45:23;;;;;;;;;;;;;;;;;;5067967;28;19916;-64
2023/03/29 14:47:49;;;;;;;;;;;;;;;;;;5068216;28;19995;-62
2023/03/29 14:50:15;;;;;;;;;;;;;;;;;;5067612;28;20503;-63
2023/03/29 14:52:41;;;;;;;;;;;;;;;;;;5068281;28;20598;-62
2023/03/29 14:55:07;;;;;;;;;;;;;;;;;;5067034;28;19957;-60
2023/03/29 14:57:33;;;;;;;;;;;;;;;;;;5068017;28;19905;-61
2023/03/29 14:59:59;;;;;;;;;;;;;;;;;;5066856;28;19909;-61
2023/03/29 15:02:25;;;;;;;;;;;;;;;;;;5068202;28;20335;-62
2023/03/29 15:04:52;;;;;;;;;;;;;;;;;;5067362;28;19915;-61
2023/03/29 15:07:18;;;;;;;;;;;;;;;;;;5067767;28;19971;-59
2023/03/29 15:09:44;;;;;;;;;;;;;;;;;;5068402;28;20376;-62
2023/03/29 15:12:10;;;;;;;;;;;;;;;;;;5068462;28;19914;-60
2023/03/29 15:14:36;;;;;;;;;;;;;;;;;;5067626;28;20323;-62
2023/03/29 15:17:03;;;;;;;;;;;;;;;;;;5068402;28;19935;-60
2023/03/29 15:19:29;;;;;;;;;;;;;;;;;;5067906;28;19908;-62
2023/03/29 15:21:55;;;;;;;;;;;;;;;;;;5068151;28;19908;-63
2023/03/29 15:24:21;;;;;;;;;;;;;;;;;;5070909;28;19924;-61
2023/03/29 15:26:47;;;;;;;;;;;;;;;;;;5048550;28;20234;-62
2023/03/29 15:29:15;;;;;;;;;;;;;;;;;;5047539;28;19916;-65
2023/03/29 15:31:41;;;;;;;;;;;;;;;;;;5049229;28;20262;-62
2023/03/29 15:34:07;;;;;;;;;;;;;;;;;;5064995;28;19931;-62
2023/03/29 15:36:33;;;;;;;;;;;;;;;;;;5069143;28;19954;-63
2023/03/29 15:38:59;;;;;;;;;;;;;;;;;;5047821;28;19959;-62
2023/03/29 15:41:26;;;;;;;;;;;;;;;;;;5047444;28;19915;-52
2023/03/29 15:43:52;;;;;;;;;;;;;;;;;;5046832;28;19979;-61
2023/03/29 15:46:18;;;;;;;;;;;;;;;;;;5047921;28;20341;-61
2023/03/29 15:48:44;;;;;;;;;;;;;;;;;;5048348;28;19920;-62
2023/03/29 15:51:11;;;;;;;;;;;;;;;;;;5048865;28;20275;-64
2023/03/29 15:53:37;;;;;;;;;;;;;;;;;;5049949;28;19934;-63
2023/03/29 15:56:02;;;;;;;;;;;;;;;;;;5067591;28;20008;-62
2023/03/29 15:58:28;;;;;;;;;;;;;;;;;;5067984;28;19908;-63
2023/03/29 16:00:55;;;;;;;;;;;;;;;;;;5067859;28;19920;-63
2023/03/29 16:03:21;;;;;;;;;;;;;;;;;;5070408;28;19923;-63
2023/03/29 16:05:47;;;;;;;;;;;;;;;;;;5071385;28;19905;-63
2023/03/29 16:08:12;;;;;;;;;;;;;;;;;;5069919;28;20061;-60
2023/03/29 16:10:38;;;;;;;;;;;;;;;;;;5071174;28;19908;-64
2023/03/29 16:13:05;;;;;;;;;;;;;;;;;;5070697;28;19994;-63
2023/03/29 16:15:31;;;;;;;;;;;;;;;;;;5071404;28;20364;-63
2023/03/29 16:17:57;;;;;;;;;;;;;;;;;;5070319;28;19915;-61
2023/03/29 16:20:23;;;;;;;;;;;;;;;;;;5072770;28;19999;-61
2023/03/29 16:22:48;;;;;;;;;;;;;;;;;;5072592;28;20012;-61
2023/03/29 16:25:14;;;;;;;;;;;;;;;;;;5073515;28;20363;-59
2023/03/29 16:27:41;;;;;;;;;;;;;;;;;;5073998;28;20532;-60
2023/03/29 16:30:07;;;;;;;;;;;;;;;;;;5072887;28;19915;-60
2023/03/29 16:32:32;;;;;;;;;;;;;;;;;;5073920;28;19915;-61
2023/03/29 16:34:58;;;;;;;;;;;;;;;;;;5073254;28;19904;-61
2023/03/29 16:37:24;;;;;;;;;;;;;;;;;;5072775;28;20268;-61
2023/03/29 16:39:50;;;;;;;;;;;;;;;;;;5074324;28;20319;-59
2023/03/29 16:42:16;;;;;;;;;;;;;;;;;;5074213;28;19920;-64
2023/03/29 16:44:43;;;;;;;;;;;;;;;;;;5073313;28;19912;-62